Nearby METAR* Reports

*"METAR [Météorologique Aviation Régulière] is the international standard code format for hourly surface weather observations which is analogous to the SA coding currently used in the US. The acronym roughly translates from French as Aviation Routine Weather Report." (Source: http://gosic.org/wdcmet/us-metar-faq-taf)

 

KTEB - Teterboro, New Jersey, USA
Distance from station: ENE 2mi, 3km
Updated: 08/20/2019 8:51am
Clear
Clear
 Wind from NE
Wind: NE 6 mph , 9 km/h
Temperature: 81°F , 27°C
Heat Index: 83°F , 28°C
Dew Point: 64°F , 18°C
Humidity: 58%
Barometer: 30.09 inHg , 1019 hPa
Clouds: Clear
Visibility: 10 miles , 16 km
2019/08/20 12:51 KTEB 201251Z 04005KT 10SM CLR 27/18 A3009 RMK AO2 SLP190 T02670183
KNYC - Nyc/Central Park, New York, USA
Distance from station: SE 8mi, 13km
Updated: 08/20/2019 8:51am
Clear
Clear
 Wind from NE
Wind: NE 5 mph , 7 km/h
Temperature: 79°F , 26°C
Dew Point: 64°F , 18°C
Humidity: 61%
Barometer: 30.14 inHg , 1020.7 hPa
Clouds: Clear
Visibility: 10 miles , 16 km
2019/08/20 12:51 KNYC 201251Z AUTO 04004KT 10SM CLR 26/18 A3014 RMK AO2 SLP195 T02610183 $
KCDW - Caldwell, New Jersey, USA
Distance from station: W 11mi, 17km
Updated: 08/20/2019 8:53am
Clear
Clear
 Wind from NE
Wind: NE 7 mph , 11 km/h
Temperature: 81°F , 27°C
Heat Index: 83°F , 28°C
Dew Point: 66°F , 19°C
Humidity: 62%
Barometer: 30.12 inHg , 1020 hPa
Clouds: Clear
Visibility: 10 miles , 16 km
2019/08/20 12:53 KCDW 201253Z 04006KT 10SM CLR 27/19 A3012 RMK AO2 SLP203 T02670189
 
KLGA - Nyc/La Guardia, New York, USA
Distance from station: ESE 12mi, 19km
Updated: 08/20/2019 8:51am
Partly cloudy
Partly cloudy
 Wind from NE
Wind: NE 12 mph , 19 km/h
Temperature: 79°F , 26°C
Dew Point: 61°F , 16°C
Humidity: 54%
Barometer: 30.10 inHg , 1019.3 hPa
Clouds: Partly cloudy
Visibility: 10 miles , 16 km
Cloud details: Partly cloudy 25000 ft
2019/08/20 12:51 KLGA 201251Z 05010KT 10SM SCT250 26/16 A3010 RMK AO2 SLP193 T02560161
KEWR - Newark, New Jersey, USA
Distance from station: SSW 13mi, 20km
Updated: 08/20/2019 8:51am
Mostly cloudy
Mostly cloudy
 Wind from N
Wind: N 9 mph , 15 km/h
Temperature: 81°F , 27°C
Heat Index: 83°F , 28°C
Dew Point: 66°F , 19°C
Humidity: 62%
Barometer: 30.10 inHg , 1019.3 hPa
Clouds: Mostly cloudy
Visibility: 10 miles , 16 km
Cloud details: Mostly cloudy 25000 ft
2019/08/20 12:51 KEWR 201251Z 01008KT 10SM BKN250 27/19 A3010 RMK AO2 SLP193 T02670194
KMMU - Morristown Muni, New Jersey, USA
Distance from station: WSW 18mi, 29km
Updated: 08/20/2019 8:45am
Few Clouds
Few Clouds
 Wind from ENE
Wind: ENE 5 mph , 7 km/h
Temperature: 77°F , 25°C
Dew Point: 72°F , 22°C
Humidity: 83%
Barometer: 30.12 inHg , 1020 hPa
Clouds: Few Clouds
Visibility: 10 miles , 16 km
Cloud details: Few Clouds 25000 ft
2019/08/20 12:45 KMMU 201245Z 07004KT 10SM FEW250 25/22 A3012
 
KLDJ - Linden, New Jersey, USA
Distance from station: SSW 19mi, 30km
Updated: 08/20/2019 9:35am
Clear
Clear
 Wind from calm
Wind: Calm
Temperature: 82°F , 28°C
Heat Index: 83°F , 28°C
Dew Point: 63°F , 17°C
Humidity: 51%
Barometer: 30.11 inHg , 1019.6 hPa
Clouds: Clear
Visibility: 10 miles , 16 km
2019/08/20 13:35 KLDJ 201335Z AUTO 00000KT 10SM CLR 28/17 A3011 RMK AO2 T02800172
KJFK - Nyc/Jfk Arpt, New York, USA
Distance from station: SE 23mi, 36km
Updated: 08/20/2019 8:51am
Mostly cloudy
Mostly cloudy
 Wind from NE
Wind: NE 13 mph , 20 km/h
Temperature: 81°F , 27°C
Heat Index: 83°F , 28°C
Dew Point: 64°F , 18°C
Humidity: 58%
Barometer: 30.11 inHg , 1019.6 hPa
Clouds: Mostly cloudy
Visibility: 10 miles , 16 km
Cloud details: Mostly cloudy 32000 ft
2019/08/20 12:51 KJFK 201251Z 05011KT 10SM BKN320 27/18 A3011 RMK AO2 SLP195 T02670183 $
KHPN - White Plains, New York, USA
Distance from station: NE 25mi, 40km
Updated: 08/20/2019 8:56am
Clear
Clear
 Wind from NNE
Wind: NNE 6 mph , 9 km/h
Temperature: 79°F , 26°C
Dew Point: 61°F , 16°C
Humidity: 54%
Barometer: 30.12 inHg , 1020 hPa
Clouds: Clear
Visibility: 10 miles , 16 km
2019/08/20 12:56 KHPN 201256Z 03005KT 10SM CLR 26/16 A3012 RMK AO2 SLP191 T02560161
 
KSMQ - Somerville, New Jersey, USA
Distance from station: WSW 35mi, 56km
Updated: 08/20/2019 8:53am
Clear
Clear
 Wind from NE
Wind: NE 6 mph , 9 km/h
Temperature: 79°F , 26°C
Dew Point: 68°F , 20°C
Humidity: 70%
Barometer: 30.09 inHg , 1019 hPa
Clouds: Clear
Visibility: 10 miles , 16 km
2019/08/20 12:53 KSMQ 201253Z AUTO 04005KT 10SM CLR 26/20 A3009 RMK AO2 SLP189 T02610200
K12N - Andover, New Jersey, USA
Distance from station: WNW 36mi, 57km
Updated: 08/20/2019 8:54am

 Wind from calm
Wind: Calm
Temperature: 75°F , 24°C
Dew Point: 70°F , 21°C
Humidity: 83%
Barometer: 30.14 inHg , 1020.7 hPa
2019/08/20 12:54 K12N 201254Z AUTO 00000KT 24/21 A3014 RMK AO1 SLP196 T02440206
KFRG - Farmingdale, New York, USA
Distance from station: ESE 36mi, 58km
Updated: 08/20/2019 8:53am
Clear
Clear
 Wind from NNE
Wind: NNE 12 mph , 19 km/h
Temperature: 79°F , 26°C
Dew Point: 63°F , 17°C
Humidity: 58%
Barometer: 30.10 inHg , 1019.3 hPa
Clouds: Clear
Visibility: 10 miles , 16 km
2019/08/20 12:53 KFRG 201253Z 02010KT 10SM CLR 26/17 A3010 RMK AO2 SLP193 T02560172
 
KFWN - Sussex, New Jersey, USA
Distance from station: NW 37mi, 60km
Updated: 08/20/2019 8:53am
Clear
Clear
 Wind from calm
Wind: Calm
Temperature: 73°F , 23°C
Dew Point: 68°F , 20°C
Humidity: 83%
Barometer: 30.13 inHg , 1020.3 hPa
Clouds: Clear
Visibility: 10 miles , 16 km
2019/08/20 12:53 KFWN 201253Z AUTO 00000KT 10SM CLR 23/20 A3013 RMK AO2 SLP201 T02330200
KSWF - Newburgh/Stewart, New York, USA
Distance from station: 0 44mi, 72km
Updated: 08/20/2019 8:45am
Clear
Clear
 Wind from calm
Wind: Calm
Temperature: 77°F , 25°C
Dew Point: 68°F , 20°C
Humidity: 74%
Barometer: 30.14 inHg , 1020.7 hPa
Clouds: Clear
Visibility: 10 miles , 16 km
2019/08/20 12:45 KSWF 201245Z 00000KT 10SM SKC 25/20 A3014
KMGJ - Montgomery, New York, USA
Distance from station: NNW 47mi, 75km
Updated: 08/20/2019 8:54am
Clear
Clear
 Wind from calm
Wind: Calm
Temperature: 73°F , 23°C
Dew Point: 66°F , 19°C
Humidity: 78%
Barometer: 30.13 inHg , 1020.3 hPa
Clouds: Clear
Visibility: 10 miles , 16 km
2019/08/20 12:54 KMGJ 201254Z AUTO 00000KT 10SM CLR 23/19 A3013 RMK AO2 SLP200 T02280189
 
KDXR - Danbury, Connecticut, USA
Distance from station: NE 47mi, 76km
Updated: 08/20/2019 8:53am
Clear
Clear
 Wind from ENE
Wind: ENE 6 mph , 9 km/h
Temperature: 75°F , 24°C
Dew Point: 61°F , 16°C
Humidity: 61%
Barometer: 30.14 inHg , 1020.7 hPa
Clouds: Clear
Visibility: 10 miles , 16 km
2019/08/20 12:53 KDXR 201253Z 06005KT 10SM CLR 24/16 A3014 RMK AO2 SLP201 T02440161
KBLM - Belmar/Farmdale, New Jersey, USA
Distance from station: S 48mi, 77km
Updated: 08/20/2019 8:56am
Clear
Clear
 Wind from NE
Wind: NE 10 mph , 17 km/h
Temperature: 79°F , 26°C
Dew Point: 68°F , 20°C
Humidity: 70%
Barometer: 30.12 inHg , 1020 hPa
Clouds: Clear
Visibility: 10 miles , 16 km
2019/08/20 12:56 KBLM 201256Z AUTO 05009KT 10SM CLR 26/20 A3012 RMK AO2 SLP198 T02560200